Time;durP1;ratioP1;P1;durP2;ratioP2;P2;SDS_P1;SDS_P2;PMS_P1;PMS_P2;Temp;Humidity;BMP_temperature;BMP_pressure;BME280_temperature;BME280_humidity;BME280_pressure;Samples;Min_cycle;Max_cycle;Signal;HPM_P1;HPM_P2
2021/03/05 00:01:33;;;;;;;60.87;40.10;;;8.00;74.00;;;;;;5093081;28;20197;-59
2021/03/05 00:04:01;;;;;;;57.47;39.33;;;8.00;74.00;;;;;;5100540;28;20235;-59
2021/03/05 00:06:28;;;;;;;61.47;40.23;;;8.10;74.00;;;;;;5105251;28;20212;-59
2021/03/05 00:08:55;;;;;;;66.07;40.30;;;8.10;74.00;;;;;;5093441;28;20251;-59
2021/03/05 00:11:22;;;;;;;61.23;39.77;;;8.20;74.10;;;;;;5095008;28;20224;-59
2021/03/05 00:13:50;;;;;;;64.33;41.27;;;8.30;74.20;;;;;;5093845;28;20595;-59
2021/03/05 00:16:17;;;;;;;66.87;41.67;;;8.30;74.00;;;;;;5101742;28;20596;-60
2021/03/05 00:18:45;;;;;;;64.77;40.27;;;8.30;74.00;;;;;;5099727;28;20207;-59
2021/03/05 00:21:15;;;;;;;67.17;42.20;;;8.30;73.90;;;;;;5093243;28;20220;-59
2021/03/05 00:23:42;;;;;;;65.07;41.00;;;8.30;74.00;;;;;;5097268;28;20208;-59
2021/03/05 00:26:09;;;;;;;61.63;39.57;;;8.40;74.10;;;;;;5097411;28;20212;-60
2021/03/05 00:28:37;;;;;;;70.73;43.03;;;8.40;74.00;;;;;;5101027;28;20219;-59
2021/03/05 00:31:04;;;;;;;70.70;44.13;;;8.50;74.00;;;;;;5097233;28;20211;-59
2021/03/05 00:33:31;;;;;;;73.90;42.27;;;8.50;74.00;;;;;;5099587;28;20212;-59
2021/03/05 00:35:58;;;;;;;63.23;38.27;;;8.50;74.00;;;;;;5097002;28;20608;-59
2021/03/05 00:38:26;;;;;;;62.37;42.70;;;8.50;74.00;;;;;;5107438;28;20212;-59
2021/03/05 00:40:53;;;;;;;80.90;46.07;;;8.60;74.00;;;;;;5090838;28;20236;-59
2021/03/05 00:43:21;;;;;;;71.73;43.83;;;8.50;74.20;;;;;;5100454;28;20582;-59
2021/03/05 00:45:49;;;;;;;74.20;44.80;;;8.60;74.20;;;;;;5097844;28;20197;-59
2021/03/05 00:48:18;;;;;;;77.70;46.33;;;8.60;74.20;;;;;;5097035;28;20216;-59
2021/03/05 00:50:45;;;;;;;77.57;43.93;;;8.60;74.20;;;;;;5100776;28;20200;-59
2021/03/05 00:53:13;;;;;;;77.77;45.37;;;8.60;74.20;;;;;;5090643;28;20201;-59
2021/03/05 00:55:40;;;;;;;65.03;41.80;;;8.70;74.00;;;;;;5094280;28;20229;-59
2021/03/05 00:58:07;;;;;;;69.10;43.77;;;8.70;73.90;;;;;;5097688;28;20239;-59
2021/03/05 01:00:34;;;;;;;70.00;45.00;;;8.70;74.00;;;;;;5097366;28;20666;-59
2021/03/05 01:03:02;;;;;;;73.97;44.10;;;8.70;74.00;;;;;;5093908;28;20193;-59
2021/03/05 01:05:29;;;;;;;75.87;43.97;;;8.70;74.20;;;;;;5096752;28;20217;-59
2021/03/05 01:07:58;;;;;;;72.70;43.33;;;8.70;74.20;;;;;;5093983;28;20231;-59
2021/03/05 01:10:26;;;;;;;71.40;45.07;;;8.70;74.20;;;;;;5094154;28;20674;-59
2021/03/05 01:12:55;;;;;;;74.00;42.90;;;8.80;74.30;;;;;;5097086;28;20258;-59
2021/03/05 01:15:23;;;;;;;78.53;42.87;;;8.90;74.40;;;;;;5100465;28;20225;-59
2021/03/05 01:17:51;;;;;;;71.50;43.20;;;8.90;75.20;;;;;;5096668;28;20217;-59
2021/03/05 01:20:21;;;;;;;64.40;41.87;;;9.00;74.70;;;;;;5095476;28;20300;-59
2021/03/05 01:22:48;;;;;;;65.47;42.10;;;9.00;74.70;;;;;;5099261;28;20196;-59
2021/03/05 01:25:19;;;;;;;66.80;41.97;;;9.10;74.80;;;;;;5090666;28;20606;-59
2021/03/05 01:27:46;;;;;;;72.30;40.63;;;9.10;74.80;;;;;;5092347;28;20567;-60
2021/03/05 01:30:15;;;;;;;63.87;39.40;;;9.10;74.50;;;;;;5104512;28;20201;-59
2021/03/05 01:32:42;;;;;;;62.73;38.77;;;9.20;74.50;;;;;;5096401;28;20209;-59
2021/03/05 01:35:19;;;;;;;68.97;38.07;;;9.20;74.40;;;;;;5097612;28;20216;-59
2021/03/05 01:37:47;;;;;;;65.83;38.17;;;9.20;74.30;;;;;;5096706;28;20232;-59
2021/03/05 01:40:27;;;;;;;64.93;39.43;;;9.30;74.20;;;;;;5104134;28;20523;-59
2021/03/05 01:42:56;;;;;;;63.50;39.53;;;9.30;74.20;;;;;;5096068;28;20232;-59
2021/03/05 01:45:26;;;;;;;61.33;37.83;;;9.30;74.10;;;;;;5100944;28;20524;-59
2021/03/05 01:47:56;;;;;;;72.73;38.80;;;9.30;74.10;;;;;;5100058;28;20213;-59
2021/03/05 01:50:32;;;;;;;64.53;37.90;;;9.40;74.20;;;;;;5101042;28;20295;-59
2021/03/05 01:53:02;;;;;;;56.93;37.83;;;9.40;74.00;;;;;;5099918;28;20300;-59
2021/03/05 01:55:30;;;;;;;62.90;39.47;;;9.40;73.80;;;;;;5106430;28;20697;-59
2021/03/05 01:57:57;;;;;;;59.10;37.60;;;9.40;73.90;;;;;;5098547;28;20204;-59
2021/03/05 02:00:49;;;;;;;63.13;38.63;;;9.40;73.90;;;;;;5107747;28;20576;-59
2021/03/05 02:03:16;;;;;;;66.30;37.37;;;9.40;74.00;;;;;;5099694;28;20200;-59
2021/03/05 02:05:43;;;;;;;60.20;34.90;;;9.50;74.00;;;;;;5101303;28;20213;-59
2021/03/05 02:08:13;;;;;;;55.13;34.00;;;9.50;73.90;;;;;;5094819;28;20515;-59
2021/03/05 02:10:41;;;;;;;59.73;35.83;;;9.50;73.50;;;;;;5105942;28;20212;-59
2021/03/05 02:13:09;;;;;;;52.97;34.57;;;9.50;73.20;;;;;;5095326;28;20714;-59
2021/03/05 02:15:38;;;;;;;51.57;32.47;;;9.60;73.10;;;;;;5102797;28;20235;-59
2021/03/05 02:18:40;;;;;;;57.43;34.80;;;9.60;73.00;;;;;;5103371;28;20405;-59
2021/03/05 02:21:26;;;;;;;52.87;31.73;;;9.60;72.60;;;;;;5099006;28;20290;-59
2021/03/05 02:24:11;;;;;;;51.80;33.23;;;9.60;72.60;;;;;;5101245;28;20224;-59
2021/03/05 02:27:05;;;;;;;54.03;34.20;;;9.60;72.80;;;;;;5099365;28;20748;-59
2021/03/05 02:29:55;;;;;;;52.97;32.47;;;9.60;72.80;;;;;;5101812;28;20204;-59
2021/03/05 02:32:33;;;;;;;57.43;33.23;;;9.70;72.70;;;;;;5059456;28;20217;-59
2021/03/05 02:35:02;;;;;;;55.43;33.80;;;9.70;72.40;;;;;;5098274;28;20204;-59
2021/03/05 02:37:35;;;;;;;50.50;31.50;;;9.60;72.40;;;;;;5106318;28;20560;-59
2021/03/05 02:40:20;;;;;;;50.10;32.07;;;9.60;72.60;;;;;;5095417;28;20216;-59
2021/03/05 02:42:51;;;;;;;53.33;32.33;;;9.60;72.80;;;;;;5109595;28;20200;-59
2021/03/05 02:45:23;;;;;;;49.77;32.37;;;9.60;72.90;;;;;;5103526;28;20551;-59
2021/03/05 02:48:00;;;;;;;53.13;34.03;;;9.50;73.10;;;;;;5095261;27;20212;-59
2021/03/05 02:50:30;;;;;;;60.13;36.73;;;9.40;73.30;;;;;;5107945;28;20204;-59
2021/03/05 02:53:04;;;;;;;59.00;35.87;;;9.40;72.90;;;;;;5103142;28;20526;-59
2021/03/05 02:55:33;;;;;;;58.90;36.67;;;9.20;72.80;;;;;;5097364;28;20231;-59
2021/03/05 02:58:02;;;;;;;51.73;35.37;;;9.10;73.40;;;;;;5102429;28;20272;-58
2021/03/05 03:00:30;;;;;;;56.47;35.53;;;9.00;73.80;;;;;;5100377;28;20251;-59
2021/03/05 03:02:59;;;;;;;56.33;34.60;;;9.00;74.00;;;;;;5096101;28;20204;-59
2021/03/05 03:05:29;;;;;;;59.33;34.73;;;9.00;74.10;;;;;;5098317;28;20617;-59
2021/03/05 03:07:58;;;;;;;51.53;32.57;;;9.10;74.30;;;;;;5099441;28;20212;-59
2021/03/05 03:10:28;;;;;;;56.13;33.13;;;9.10;74.40;;;;;;5096994;28;20288;-59
2021/03/05 03:12:58;;;;;;;49.47;32.07;;;9.10;74.40;;;;;;5096681;28;20205;-59
2021/03/05 03:15:30;;;;;;;53.17;31.30;;;9.10;74.50;;;;;;5096264;28;20229;-59
2021/03/05 03:18:03;;;;;;;50.60;32.10;;;9.10;74.50;;;;;;5108853;28;20212;-59
2021/03/05 03:20:32;;;;;;;51.87;32.00;;;9.20;74.40;;;;;;5094270;28;20292;-58
2021/03/05 03:23:00;;;;;;;53.27;33.83;;;9.20;74.30;;;;;;5105965;28;20640;-60
2021/03/05 03:25:27;;;;;;;48.27;32.13;;;9.20;74.20;;;;;;5101253;28;20240;-59
2021/03/05 03:27:55;;;;;;;49.80;31.73;;;9.20;74.00;;;;;;5099945;28;20242;-59
2021/03/05 03:30:23;;;;;;;49.83;31.80;;;9.20;74.10;;;;;;5105391;28;20220;-59
2021/03/05 03:32:52;;;;;;;51.20;31.50;;;9.20;74.10;;;;;;5094463;28;20207;-59
2021/03/05 03:35:20;;;;;;;46.93;30.33;;;9.20;73.80;;;;;;5102626;28;20745;-58
2021/03/05 03:38:09;;;;;;;52.27;32.17;;;9.20;73.40;;;;;;5101474;28;20208;-59
2021/03/05 03:40:36;;;;;;;51.47;32.87;;;9.20;73.30;;;;;;5105614;28;20200;-59
2021/03/05 03:43:05;;;;;;;50.40;30.27;;;9.20;73.30;;;;;;5101507;28;20204;-59
2021/03/05 03:45:35;;;;;;;53.50;30.50;;;9.20;73.40;;;;;;5095296;28;20224;-59
2021/03/05 03:48:04;;;;;;;52.80;31.60;;;9.20;73.30;;;;;;5098237;28;20219;-59
2021/03/05 03:51:07;;;;;;;50.73;31.47;;;9.20;73.30;;;;;;5100773;28;20209;-59
2021/03/05 03:53:37;;;;;;;46.37;30.40;;;9.20;73.60;;;;;;5081140;28;20299;-59
2021/03/05 03:56:09;;;;;;;45.63;31.47;;;9.20;73.70;;;;;;5105741;28;20224;-59
2021/03/05 03:58:39;;;;;;;49.57;32.20;;;9.20;73.70;;;;;;5101552;28;20239;-59
2021/03/05 04:01:11;;;;;;;48.33;30.63;;;9.20;74.20;;;;;;5110044;28;20569;-59
2021/03/05 04:03:43;;;;;;;46.60;29.50;;;9.30;74.10;;;;;;5096046;28;20235;-59
2021/03/05 04:06:12;;;;;;;50.63;30.27;;;9.30;74.00;;;;;;5099339;28;20555;-59
2021/03/05 04:08:42;;;;;;;45.67;30.00;;;9.30;73.90;;;;;;5096958;28;20279;-59
2021/03/05 04:11:10;;;;;;;46.77;31.00;;;9.30;73.90;;;;;;5101509;28;20216;-60
2021/03/05 04:13:40;;;;;;;50.33;30.53;;;9.30;74.00;;;;;;5099993;28;20197;-59
2021/03/05 04:16:07;;;;;;;50.20;28.20;;;9.30;74.20;;;;;;5099173;28;20227;-59
2021/03/05 04:18:39;;;;;;;48.93;29.87;;;9.30;74.30;;;;;;5093957;28;20284;-59
2021/03/05 04:21:42;;;;;;;45.90;28.70;;;9.30;74.40;;;;;;5104473;28;20192;-59
2021/03/05 04:24:10;;;;;;;40.97;28.03;;;9.30;74.60;;;;;;5029945;28;20289;-59
2021/03/05 04:26:37;;;;;;;40.50;26.37;;;9.30;74.60;;;;;;5086719;28;20220;-59
2021/03/05 04:29:04;;;;;;;39.57;26.67;;;9.30;74.60;;;;;;5096101;28;20213;-59
2021/03/05 04:31:31;;;;;;;41.70;26.57;;;9.20;74.50;;;;;;5092781;28;20583;-59
2021/03/05 04:33:59;;;;;;;39.27;25.07;;;9.20;74.40;;;;;;5094395;28;20201;-59
2021/03/05 04:36:26;;;;;;;42.87;27.23;;;9.20;74.40;;;;;;5104089;28;20323;-59
2021/03/05 04:39:03;;;;;;;35.70;24.70;;;9.20;74.40;;;;;;5102903;28;20203;-59
2021/03/05 04:41:31;;;;;;;38.57;26.07;;;9.20;74.30;;;;;;5100555;28;20212;-59
2021/03/05 04:44:00;;;;;;;39.50;25.37;;;9.20;74.30;;;;;;5093651;28;20205;-59
2021/03/05 04:46:44;;;;;;;41.00;26.27;;;9.20;74.20;;;;;;5102482;28;20207;-59
2021/03/05 04:49:12;;;;;;;40.27;25.80;;;9.20;74.60;;;;;;5091008;28;20208;-59
2021/03/05 04:51:39;;;;;;;38.83;25.30;;;9.10;75.00;;;;;;5100316;28;20213;-59
2021/03/05 04:54:06;;;;;;;37.93;26.17;;;9.10;75.00;;;;;;5102546;28;20234;-59
2021/03/05 04:56:35;;;;;;;42.07;26.23;;;9.10;75.00;;;;;;5096220;28;20259;-59
2021/03/05 04:59:03;;;;;;;38.67;26.00;;;9.10;75.00;;;;;;5100377;28;20232;-59
2021/03/05 05:01:30;;;;;;;43.53;25.60;;;9.00;74.80;;;;;;5095524;28;20212;-59
2021/03/05 05:03:58;;;;;;;39.57;24.40;;;9.00;74.70;;;;;;5106843;28;20731;-59
2021/03/05 05:06:25;;;;;;;38.80;25.47;;;9.10;74.70;;;;;;5094701;28;20213;-59
2021/03/05 05:08:53;;;;;;;41.10;26.47;;;9.00;74.50;;;;;;5092551;28;20672;-59
2021/03/05 05:11:20;;;;;;;42.17;26.17;;;9.00;74.30;;;;;;5094158;28;20239;-59
2021/03/05 05:13:47;;;;;;;39.93;25.27;;;9.10;74.00;;;;;;5096222;28;20286;-59
2021/03/05 05:16:14;;;;;;;37.87;25.50;;;9.10;73.80;;;;;;5101200;28;20229;-59
2021/03/05 05:18:41;;;;;;;39.43;25.70;;;9.10;73.80;;;;;;5103090;28;20239;-59
2021/03/05 05:21:08;;;;;;;40.77;26.23;;;9.10;73.80;;;;;;5098181;28;20320;-59
2021/03/05 05:23:36;;;;;;;40.23;26.30;;;9.10;73.90;;;;;;5095648;28;20686;-59
2021/03/05 05:26:03;;;;;;;38.30;25.87;;;9.10;73.80;;;;;;5100313;28;20219;-59
2021/03/05 05:28:30;;;;;;;39.80;24.27;;;9.10;73.80;;;;;;5103353;28;20553;-59
2021/03/05 05:30:57;;;;;;;36.47;23.87;;;9.10;73.80;;;;;;5103322;28;20240;-59
2021/03/05 05:33:26;;;;;;;46.83;25.23;;;9.10;73.70;;;;;;5104310;28;20226;-59
2021/03/05 05:35:53;;;;;;;42.13;24.70;;;9.00;73.60;;;;;;5100389;28;20604;-59
2021/03/05 05:38:20;;;;;;;39.37;24.40;;;8.90;73.60;;;;;;5104746;28;20205;-59
2021/03/05 05:40:53;;;;;;;36.07;25.40;;;8.90;73.90;;;;;;5099266;28;20201;-59
2021/03/05 05:43:20;;;;;;;42.03;25.63;;;8.90;74.20;;;;;;5104079;28;20287;-59
2021/03/05 05:45:47;;;;;;;40.63;25.33;;;8.80;74.40;;;;;;5109445;28;20638;-59
2021/03/05 05:48:16;;;;;;;37.47;24.33;;;8.80;74.60;;;;;;5098984;28;20204;-59
2021/03/05 05:50:44;;;;;;;40.40;23.87;;;8.80;74.80;;;;;;5101319;28;20289;-59
2021/03/05 05:53:13;;;;;;;41.57;24.90;;;8.70;74.80;;;;;;5096498;28;20231;-59
2021/03/05 05:55:40;;;;;;;40.87;25.13;;;8.70;74.90;;;;;;5098611;28;20233;-59
2021/03/05 05:58:09;;;;;;;38.57;23.80;;;8.80;74.90;;;;;;5104139;28;20265;-59
2021/03/05 06:00:36;;;;;;;37.17;25.17;;;8.70;74.80;;;;;;5097482;28;20558;-59
2021/03/05 06:03:07;;;;;;;35.47;22.83;;;8.80;74.70;;;;;;5096672;28;20216;-59
2021/03/05 06:05:34;;;;;;;37.17;25.03;;;8.80;74.50;;;;;;5106078;28;20209;-59
2021/03/05 06:08:02;;;;;;;39.23;24.30;;;8.80;74.90;;;;;;5104912;28;20294;-59
2021/03/05 06:10:29;;;;;;;40.97;25.47;;;8.80;75.30;;;;;;5102920;28;20209;-59
2021/03/05 06:12:56;;;;;;;41.37;25.17;;;8.70;75.40;;;;;;5096429;28;20655;-59
2021/03/05 06:15:27;;;;;;;39.37;24.37;;;8.70;75.70;;;;;;5099300;28;20237;-58
2021/03/05 06:17:56;;;;;;;47.70;25.37;;;8.80;75.80;;;;;;5096570;28;20205;-58
2021/03/05 06:20:23;;;;;;;41.10;25.93;;;8.90;75.90;;;;;;5096248;28;20201;-58
2021/03/05 06:23:12;;;;;;;37.33;25.37;;;8.90;75.80;;;;;;5098476;28;20275;-58
2021/03/05 06:25:40;;;;;;;40.60;24.93;;;9.00;75.90;;;;;;5098342;28;20667;-58
2021/03/05 06:28:15;;;;;;;40.07;26.83;;;9.10;75.80;;;;;;5104519;28;20209;-59
2021/03/05 06:30:44;;;;;;;40.13;25.77;;;9.10;75.70;;;;;;5095024;28;20638;-59
2021/03/05 06:33:32;;;;;;;42.80;25.07;;;9.20;75.70;;;;;;5095092;28;20209;-60
2021/03/05 06:36:16;;;;;;;41.33;26.73;;;9.30;75.70;;;;;;5102647;28;20248;-59
2021/03/05 06:38:46;;;;;;;41.60;26.47;;;9.30;75.60;;;;;;5093985;28;20209;-59
2021/03/05 06:41:20;;;;;;;44.53;28.43;;;9.40;75.40;;;;;;5104206;28;20354;-59
2021/03/05 06:43:57;;;;;;;41.03;27.20;;;9.50;75.20;;;;;;5102810;28;20255;-59
2021/03/05 06:46:51;;;;;;;40.27;25.97;;;9.60;75.00;;;;;;5097172;28;20208;-59
2021/03/05 06:49:19;;;;;;;45.03;28.17;;;9.60;74.80;;;;;;5095427;28;20212;-59
2021/03/05 06:51:55;;;;;;;45.77;29.47;;;9.80;74.70;;;;;;5101810;28;20201;-59
2021/03/05 06:54:33;;;;;;;40.73;29.57;;;9.80;74.40;;;;;;5094413;28;20205;-60
2021/03/05 06:57:02;;;;;;;49.23;29.67;;;9.90;74.10;;;;;;5105521;28;20225;-59
2021/03/05 06:59:35;;;;;;;48.97;30.07;;;10.00;73.90;;;;;;5095565;28;20686;-59
2021/03/05 07:02:04;;;;;;;50.47;31.40;;;10.00;73.50;;;;;;5093766;28;20209;-58
2021/03/05 07:04:33;;;;;;;51.47;32.70;;;10.10;73.30;;;;;;5093865;28;20711;-60
2021/03/05 07:07:08;;;;;;;51.53;34.20;;;10.20;73.30;;;;;;5094220;28;20205;-59
2021/03/05 07:09:38;;;;;;;53.63;33.03;;;10.30;73.20;;;;;;5093940;28;20599;-59
2021/03/05 07:12:13;;;;;;;57.80;34.10;;;10.40;73.00;;;;;;5098564;28;20212;-60
2021/03/05 07:14:47;;;;;;;55.37;34.33;;;10.40;72.70;;;;;;5100095;28;20205;-60
2021/03/05 07:17:16;;;;;;;47.50;33.60;;;10.50;72.50;;;;;;5094975;28;20260;-59
2021/03/05 07:19:44;;;;;;;55.23;35.47;;;10.60;72.30;;;;;;5107925;28;20204;-59
2021/03/05 07:22:14;;;;;;;59.37;36.87;;;10.60;72.10;;;;;;5106753;28;20300;-59
2021/03/05 07:24:41;;;;;;;55.93;36.90;;;10.70;72.10;;;;;;5103246;28;20639;-59
2021/03/05 07:27:09;;;;;;;63.43;38.13;;;10.80;72.00;;;;;;5096515;28;22434;-60
2021/03/05 07:29:44;;;;;;;54.90;36.90;;;10.90;71.70;;;;;;5102573;28;20528;-59
2021/03/05 07:32:20;;;;;;;62.97;37.70;;;11.00;71.70;;;;;;5098770;28;20205;-60
2021/03/05 07:34:49;;;;;;;57.10;36.87;;;11.10;71.40;;;;;;5101313;28;20814;-60
2021/03/05 07:37:18;;;;;;;57.70;36.83;;;11.20;71.30;;;;;;5093524;28;20225;-60
2021/03/05 07:39:48;;;;;;;66.20;42.87;;;11.40;71.20;;;;;;5096374;28;20205;-60
2021/03/05 07:42:16;;;;;;;79.37;51.63;;;11.40;71.50;;;;;;5093513;28;20201;-60
2021/03/05 07:44:45;;;;;;;75.03;48.57;;;11.50;70.40;;;;;;5104918;28;20625;-60
2021/03/05 07:47:14;;;;;;;79.27;47.40;;;11.60;70.20;;;;;;5093742;28;20760;-60
2021/03/05 07:49:42;;;;;;;104.70;62.00;;;11.60;69.90;;;;;;5097334;28;20275;-60
2021/03/05 07:52:09;;;;;;;87.93;56.27;;;11.70;69.90;;;;;;5093131;28;20224;-60
2021/03/05 07:54:39;;;;;;;75.47;47.93;;;11.80;69.90;;;;;;5104029;28;20642;-60
2021/03/05 07:57:19;;;;;;;72.17;46.00;;;11.80;69.60;;;;;;5094533;28;20232;-60
2021/03/05 07:59:50;;;;;;;57.13;38.93;;;11.90;69.60;;;;;;5101650;28;20324;-59
2021/03/05 08:02:24;;;;;;;58.63;38.77;;;12.00;69.40;;;;;;5094358;28;20205;-61
2021/03/05 08:04:53;;;;;;;47.87;31.93;;;12.10;69.40;;;;;;5099221;28;20204;-61
2021/03/05 08:07:25;;;;;;;48.30;32.47;;;12.20;69.10;;;;;;5093002;28;20358;-61
2021/03/05 08:09:52;;;;;;;52.17;32.63;;;12.30;69.00;;;;;;5099282;28;20227;-60
2021/03/05 08:15:07;;;;;;;44.90;34.00;;;12.50;68.50;;;;;;5095036;28;20235;-58
2021/03/05 08:17:41;;;;;;;54.07;35.23;;;12.60;68.30;;;;;;5098368;28;20252;-59
2021/03/05 08:20:18;;;;;;;51.53;36.07;;;12.80;68.20;;;;;;5096749;28;20208;-60
2021/03/05 08:23:03;;;;;;;67.00;41.07;;;12.90;68.00;;;;;;5093898;28;20192;-59
2021/03/05 08:25:38;;;;;;;59.90;41.20;;;13.00;67.90;;;;;;5096915;28;20197;-58
2021/03/05 08:28:26;;;;;;;62.40;42.70;;;13.10;67.80;;;;;;5100262;28;20222;-61
2021/03/05 08:30:53;;;;;;;69.57;45.50;;;13.20;67.50;;;;;;5095733;28;20212;-61
2021/03/05 08:33:28;;;;;;;75.33;49.90;;;13.30;67.20;;;;;;5096165;28;20615;-59
2021/03/05 08:35:56;;;;;;;70.37;50.97;;;13.40;67.80;;;;;;5095074;28;20235;-60
2021/03/05 08:38:34;;;;;;;83.57;52.87;;;13.60;66.90;;;;;;5100128;28;20345;-59
2021/03/05 08:41:04;;;;;;;66.77;44.77;;;13.70;66.60;;;;;;5098458;28;20196;-58
2021/03/05 08:43:33;;;;;;;54.83;38.30;;;13.80;66.10;;;;;;5101035;28;20197;-61
2021/03/05 08:46:06;;;;;;;47.87;33.93;;;14.00;65.90;;;;;;5095029;28;20209;-60
2021/03/05 08:48:48;;;;;;;44.23;31.73;;;14.10;65.80;;;;;;5100154;28;20212;-60
2021/03/05 08:51:20;;;;;;;44.97;29.97;;;14.10;65.70;;;;;;5100509;28;20205;-60
2021/03/05 08:53:49;;;;;;;42.90;29.90;;;14.30;65.70;;;;;;5092472;28;20690;-60
2021/03/05 08:56:27;;;;;;;45.77;29.53;;;14.40;65.50;;;;;;5097819;28;20232;-60
2021/03/05 08:59:05;;;;;;;41.83;28.10;;;14.50;64.70;;;;;;5099009;28;20302;-58
2021/03/05 09:01:37;;;;;;;38.47;27.87;;;14.60;64.30;;;;;;5098670;28;20219;-60
2021/03/05 09:04:13;;;;;;;39.00;28.27;;;14.70;64.20;;;;;;5099075;28;20197;-59
2021/03/05 09:06:58;;;;;;;51.40;28.23;;;14.80;64.00;;;;;;5104786;28;20214;-59
2021/03/05 09:09:27;;;;;;;42.63;28.67;;;14.90;63.60;;;;;;5101822;28;20204;-60
2021/03/05 09:12:14;;;;;;;43.57;30.43;;;14.90;63.50;;;;;;5093977;28;20240;-58
2021/03/05 09:14:46;;;;;;;57.77;38.20;;;14.90;63.70;;;;;;5098098;28;20212;-60
2021/03/05 09:17:15;;;;;;;60.27;38.13;;;15.00;63.40;;;;;;5092554;28;20224;-59
2021/03/05 09:19:45;;;;;;;52.67;36.40;;;15.10;63.10;;;;;;5096356;28;20292;-61
2021/03/05 09:22:20;;;;;;;42.20;30.07;;;15.10;63.20;;;;;;5100994;28;20197;-61
2021/03/05 09:25:01;;;;;;;58.77;36.33;;;15.20;63.10;;;;;;5097551;28;20204;-61
2021/03/05 09:27:34;;;;;;;62.23;42.47;;;15.30;62.90;;;;;;5099742;28;20209;-61
2021/03/05 09:30:14;;;;;;;57.80;43.23;;;15.30;62.50;;;;;;5103139;28;20204;-60
2021/03/05 09:32:53;;;;;;;53.33;40.60;;;15.40;62.50;;;;;;5105332;28;20782;-60
2021/03/05 09:35:29;;;;;;;51.83;36.17;;;15.40;62.40;;;;;;5098282;28;20216;-61
2021/03/05 09:37:57;;;;;;;46.07;33.23;;;15.50;62.00;;;;;;5095266;28;20243;-61
2021/03/05 09:40:26;;;;;;;39.57;28.67;;;15.60;61.60;;;;;;5099997;28;20227;-59
2021/03/05 09:42:58;;;;;;;37.90;27.67;;;15.70;61.70;;;;;;5096868;28;20233;-60
2021/03/05 09:45:42;;;;;;;37.27;25.63;;;15.80;61.00;;;;;;5101615;28;20288;-59
2021/03/05 09:48:12;;;;;;;42.90;27.60;;;15.80;61.20;;;;;;5095108;28;20209;-62
2021/03/05 09:50:39;;;;;;;33.33;24.70;;;15.80;61.40;;;;;;5095639;28;20637;-63
2021/03/05 09:53:28;;;;;;;32.93;22.93;;;16.00;61.30;;;;;;5095623;28;20209;-63
2021/03/05 09:55:59;;;;;;;37.27;25.60;;;16.20;61.10;;;;;;5099203;28;20244;-63
2021/03/05 09:58:27;;;;;;;40.40;25.37;;;16.30;60.60;;;;;;5098122;28;20240;-59
2021/03/05 10:00:55;;;;;;;35.63;24.80;;;16.50;60.20;;;;;;5100378;28;20205;-60
2021/03/05 10:03:23;;;;;;;35.80;23.63;;;16.70;60.20;;;;;;5096658;28;20865;-59
2021/03/05 10:05:51;;;;;;;29.63;21.73;;;17.10;59.90;;;;;;5095803;28;20280;-58
2021/03/05 10:08:29;;;;;;;31.10;20.70;;;17.40;57.90;;;;;;5095844;28;20212;-58
2021/03/05 10:11:05;;;;;;;34.07;22.60;;;17.60;56.90;;;;;;5097388;28;20205;-60
2021/03/05 10:13:55;;;;;;;26.93;20.67;;;17.60;56.30;;;;;;5108459;28;20200;-60
2021/03/05 10:16:28;;;;;;;32.80;21.07;;;17.70;55.90;;;;;;5094824;28;20293;-60
2021/03/05 10:19:00;;;;;;;40.10;22.43;;;17.80;56.30;;;;;;5096132;28;20205;-61
2021/03/05 10:21:27;;;;;;;43.57;24.17;;;17.90;55.90;;;;;;5100746;28;20201;-60
2021/03/05 10:23:56;;;;;;;31.13;21.83;;;17.90;55.20;;;;;;5098860;28;20209;-60
2021/03/05 10:26:26;;;;;;;31.93;22.43;;;17.90;54.30;;;;;;5109227;28;20217;-60
2021/03/05 10:29:05;;;;;;;36.80;22.73;;;17.80;53.80;;;;;;5097811;28;20228;-60
2021/03/05 10:31:47;;;;;;;31.70;22.70;;;17.80;52.60;;;;;;5108864;28;20593;-60
2021/03/05 10:34:19;;;;;;;29.20;21.53;;;17.70;51.80;;;;;;5098352;28;20750;-61
2021/03/05 10:36:47;;;;;;;26.83;19.10;;;17.70;52.30;;;;;;5101494;28;20217;-60
2021/03/05 10:39:17;;;;;;;24.93;20.13;;;17.70;52.90;;;;;;5103872;28;20639;-62
2021/03/05 10:41:56;;;;;;;28.93;19.83;;;17.70;53.30;;;;;;5095902;28;20205;-63
2021/03/05 10:44:23;;;;;;;26.77;19.10;;;17.70;52.90;;;;;;5097478;28;20388;-62
2021/03/05 10:46:51;;;;;;;24.67;17.67;;;17.70;53.30;;;;;;5098222;28;20204;-59
2021/03/05 10:49:18;;;;;;;19.03;14.27;;;17.80;53.10;;;;;;5098249;28;20220;-62
2021/03/05 10:51:45;;;;;;;26.10;15.37;;;17.90;52.50;;;;;;5100985;28;20196;-61
2021/03/05 10:54:12;;;;;;;25.07;17.97;;;17.80;51.70;;;;;;5094835;28;20209;-62
2021/03/05 10:56:40;;;;;;;24.30;18.53;;;17.80;52.40;;;;;;5097668;28;20221;-59
2021/03/05 10:59:11;;;;;;;19.23;15.17;;;18.00;52.70;;;;;;5094132;28;20320;-59
2021/03/05 11:01:38;;;;;;;17.93;14.20;;;18.10;52.90;;;;;;5094368;28;20212;-61
2021/03/05 11:04:05;;;;;;;20.40;13.90;;;18.10;52.30;;;;;;5099265;28;20205;-61
2021/03/05 11:06:33;;;;;;;20.60;14.93;;;18.10;52.50;;;;;;5099827;28;20205;-61
2021/03/05 11:09:05;;;;;;;21.17;13.70;;;18.10;51.80;;;;;;5107094;28;20295;-61
2021/03/05 11:11:32;;;;;;;18.50;15.07;;;18.00;51.80;;;;;;5097982;28;20215;-60
2021/03/05 11:13:59;;;;;;;25.10;15.27;;;18.10;51.90;;;;;;5094961;28;20266;-61
2021/03/05 11:16:27;;;;;;;22.50;13.80;;;18.20;52.80;;;;;;5098628;28;20603;-61
2021/03/05 11:18:55;;;;;;;19.63;11.97;;;18.30;52.20;;;;;;5108158;28;20295;-60
2021/03/05 11:21:22;;;;;;;20.77;13.23;;;18.60;52.80;;;;;;5100656;28;20220;-62
2021/03/05 11:23:49;;;;;;;16.93;11.67;;;18.80;52.20;;;;;;5100474;28;20209;-61
2021/03/05 11:26:16;;;;;;;17.10;12.37;;;18.80;51.80;;;;;;5098779;28;20372;-60
2021/03/05 11:28:43;;;;;;;14.03;11.67;;;18.90;52.20;;;;;;5094811;28;20255;-60
2021/03/05 11:31:11;;;;;;;17.57;13.00;;;19.00;51.60;;;;;;5095161;28;20268;-63
2021/03/05 11:33:39;;;;;;;19.23;13.30;;;19.00;51.40;;;;;;5106615;28;20212;-60
2021/03/05 11:36:08;;;;;;;19.40;12.73;;;18.90;52.00;;;;;;5094744;28;20240;-60
2021/03/05 11:38:35;;;;;;;19.83;14.00;;;18.80;51.90;;;;;;5098755;28;20261;-64
2021/03/05 11:41:02;;;;;;;20.40;14.17;;;18.60;52.30;;;;;;5097704;28;20548;-64
2021/03/05 11:43:30;;;;;;;17.67;13.57;;;18.40;52.90;;;;;;5092508;28;20231;-60
2021/03/05 11:45:59;;;;;;;22.93;13.87;;;18.30;52.60;;;;;;5100426;28;20218;-60
2021/03/05 11:48:26;;;;;;;22.43;14.47;;;18.20;52.80;;;;;;5094323;28;20541;-62
2021/03/05 11:50:53;;;;;;;18.23;13.47;;;18.20;53.30;;;;;;5097102;28;20528;-62
2021/03/05 11:53:21;;;;;;;20.47;14.00;;;18.20;53.40;;;;;;5100147;28;20284;-62
2021/03/05 11:55:49;;;;;;;22.33;13.47;;;18.30;53.60;;;;;;5101993;28;20201;-62
2021/03/05 11:58:16;;;;;;;18.17;14.03;;;18.30;53.90;;;;;;5101138;28;20244;-62
2021/03/05 12:00:45;;;;;;;26.03;14.53;;;18.40;53.70;;;;;;5097781;28;20208;-62
2021/03/05 12:03:12;;;;;;;25.13;14.97;;;18.50;53.50;;;;;;5101300;28;20232;-61
2021/03/05 12:05:39;;;;;;;21.33;13.67;;;18.50;53.30;;;;;;5096154;28;20655;-61
2021/03/05 12:08:07;;;;;;;22.40;14.70;;;18.40;53.60;;;;;;5102286;28;20815;-62
2021/03/05 12:10:33;;;;;;;22.97;14.07;;;18.40;53.90;;;;;;5095045;28;20211;-62
2021/03/05 12:13:01;;;;;;;21.67;15.30;;;18.60;53.70;;;;;;5104381;28;20240;-62
2021/03/05 12:15:29;;;;;;;24.00;15.60;;;18.70;53.20;;;;;;5103067;28;20212;-62
2021/03/05 12:17:56;;;;;;;22.30;16.40;;;18.80;53.30;;;;;;5107278;28;20312;-61
2021/03/05 12:20:25;;;;;;;19.10;15.43;;;18.70;52.30;;;;;;5100530;28;20208;-61
2021/03/05 12:22:52;;;;;;;22.67;15.40;;;18.60;53.00;;;;;;5101424;28;20208;-62
2021/03/05 12:25:22;;;;;;;22.83;14.23;;;18.50;52.40;;;;;;5095554;28;20227;-62
2021/03/05 12:27:49;;;;;;;17.70;14.17;;;18.60;53.00;;;;;;5095353;28;20312;-62
2021/03/05 12:30:17;;;;;;;18.63;14.83;;;18.70;53.10;;;;;;5096036;28;20212;-61
2021/03/05 12:32:45;;;;;;;22.00;16.00;;;18.90;53.00;;;;;;5096713;28;20612;-61
2021/03/05 12:35:13;;;;;;;22.73;14.53;;;19.10;51.60;;;;;;5095482;28;20209;-62
2021/03/05 12:37:42;;;;;;;21.27;15.27;;;19.10;52.20;;;;;;5110259;28;20235;-62
2021/03/05 12:40:12;;;;;;;24.17;14.53;;;19.20;52.00;;;;;;5092894;28;20209;-62
2021/03/05 12:42:39;;;;;;;17.33;13.07;;;19.30;51.30;;;;;;5094899;28;20303;-62
2021/03/05 12:45:11;;;;;;;24.00;15.13;;;19.10;50.40;;;;;;5109198;28;20201;-62
2021/03/05 12:47:38;;;;;;;25.47;14.50;;;19.00;50.40;;;;;;5097992;28;20229;-61
2021/03/05 12:50:08;;;;;;;26.03;15.07;;;18.90;51.10;;;;;;5094657;28;20261;-61
2021/03/05 12:52:36;;;;;;;21.90;14.40;;;18.90;52.20;;;;;;5099609;28;20240;-62
2021/03/05 12:55:03;;;;;;;22.60;13.97;;;18.90;52.10;;;;;;5098107;28;20214;-62